Time;durP1;ratioP1;P1;durP2;ratioP2;P2;SDS_P1;SDS_P2;PMS_P1;PMS_P2;Temp;Humidity;BMP_temperature;BMP_pressure;BME280_temperature;BME280_humidity;BME280_pressure;Samples;Min_cycle;Max_cycle;Signal;HPM_P1;HPM_P2
2022/12/03 00:01:21;;;;;;;17.15;10.15;;;4.30;99.90;;;;;;5025212;28;20036;-74
2022/12/03 00:04:10;;;;;;;17.33;10.20;;;4.40;99.90;;;;;;5026742;28;20078;-74
2022/12/03 00:06:50;;;;;;;17.88;11.38;;;4.40;99.90;;;;;;5017930;28;20209;-73
2022/12/03 00:09:19;;;;;;;15.07;9.45;;;4.40;99.90;;;;;;5025759;28;20191;-74
2022/12/03 00:11:45;;;;;;;20.80;10.70;;;4.60;99.90;;;;;;5044400;28;20028;-74
2022/12/03 00:14:15;;;;;;;16.08;9.77;;;4.60;99.90;;;;;;5038338;28;20201;-74
2022/12/03 00:16:49;;;;;;;15.38;8.77;;;4.50;99.90;;;;;;5026358;28;20041;-75
2022/12/03 00:19:14;;;;;;;13.65;8.98;;;4.60;99.90;;;;;;5011218;28;20104;-76
2022/12/03 00:21:40;;;;;;;17.45;9.73;;;4.60;99.90;;;;;;5027945;28;20040;-75
2022/12/03 00:24:06;;;;;;;14.98;9.25;;;4.60;99.90;;;;;;5042337;28;20045;-74
2022/12/03 00:29:18;;;;;;;13.52;8.20;;;4.60;99.90;;;;;;5044678;28;20185;-73
2022/12/03 00:32:10;;;;;;;17.27;9.57;;;4.90;99.90;;;;;;5046366;28;20039;-74
2022/12/03 00:34:35;;;;;;;15.80;9.40;;;4.60;99.90;;;;;;5032651;28;20091;-74
2022/12/03 00:37:01;;;;;;;15.05;9.38;;;4.60;99.90;;;;;;5010484;28;20049;-74
2022/12/03 00:39:27;;;;;;;16.95;9.32;;;4.60;99.90;;;;;;5027629;28;20086;-75
2022/12/03 00:41:55;;;;;;;15.52;9.68;;;4.60;99.90;;;;;;5019824;28;20029;-75
2022/12/03 00:44:54;;;;;;;15.90;9.70;;;4.60;99.90;;;;;;5023109;28;20037;-74
2022/12/03 00:47:49;;;;;;;15.90;9.77;;;4.50;99.90;;;;;;5025900;28;20041;-76
2022/12/03 00:51:15;;;;;;;15.65;9.77;;;4.70;99.90;;;;;;5012276;28;20047;-76
2022/12/03 00:54:14;;;;;;;15.60;9.98;;;4.70;99.90;;;;;;5036885;28;20091;-77
2022/12/03 00:59:46;;;;;;;16.05;10.07;;;4.50;99.90;;;;;;5026950;28;20041;-74
2022/12/03 01:02:12;;;;;;;15.32;9.30;;;5.90;99.90;;;;;;5041956;28;20044;-75
2022/12/03 01:04:38;;;;;;;22.02;10.52;;;4.50;99.90;;;;;;5038647;28;20045;-75
2022/12/03 01:07:11;;;;;;;17.13;9.80;;;4.60;99.90;;;;;;5040684;28;20036;-75
2022/12/03 01:09:36;;;;;;;16.83;9.63;;;4.40;99.90;;;;;;5016016;28;20072;-75
2022/12/03 01:12:02;;;;;;;15.93;10.20;;;4.50;99.90;;;;;;5042401;28;20448;-74
2022/12/03 01:14:49;;;;;;;17.60;11.13;;;4.40;99.90;;;;;;5025811;28;20027;-75
2022/12/03 01:17:14;;;;;;;19.77;10.63;;;4.40;99.90;;;;;;5021037;28;20069;-75
2022/12/03 01:19:40;;;;;;;19.17;10.32;;;4.40;99.90;;;;;;5046493;28;20076;-76
2022/12/03 01:22:06;;;;;;;19.58;10.23;;;4.50;99.90;;;;;;5049657;28;20228;-76
2022/12/03 01:24:32;;;;;;;19.00;10.95;;;4.40;99.90;;;;;;5027279;28;20299;-76
2022/12/03 01:26:59;;;;;;;16.42;9.23;;;4.40;99.90;;;;;;5044600;28;20032;-74
2022/12/03 01:29:25;;;;;;;19.73;10.50;;;4.80;99.90;;;;;;5008287;28;20334;-76
2022/12/03 01:34:36;;;;;;;19.13;10.07;;;4.80;99.90;;;;;;5041460;28;20055;-75
2022/12/03 01:37:18;;;;;;;17.70;10.15;;;4.30;99.90;;;;;;5038299;28;20070;-74
2022/12/03 01:39:44;;;;;;;17.27;10.25;;;4.20;99.90;;;;;;5022890;28;20037;-74
2022/12/03 01:42:16;;;;;;;18.42;10.35;;;5.00;99.90;;;;;;5023937;28;20047;-75
2022/12/03 01:44:43;;;;;;;18.95;11.40;;;4.10;99.90;;;;;;5039953;28;20104;-75
2022/12/03 01:47:15;;;;;;;19.35;11.00;;;5.40;99.90;;;;;;5036061;28;20037;-75
2022/12/03 01:49:53;;;;;;;21.08;11.65;;;4.10;99.90;;;;;;5034530;28;20037;-76
2022/12/03 01:52:23;;;;;;;21.58;11.73;;;4.00;99.90;;;;;;5032972;28;20107;-75
2022/12/03 01:55:00;;;;;;;20.38;10.93;;;4.90;99.90;;;;;;5037384;28;20024;-77
2022/12/03 01:57:38;;;;;;;17.58;9.82;;;5.30;99.90;;;;;;5038642;28;20177;-75
2022/12/03 02:00:13;;;;;;;19.13;10.43;;;4.10;99.90;;;;;;5034920;28;20040;-75
2022/12/03 02:02:39;;;;;;;17.80;10.23;;;4.10;99.90;;;;;;5016434;28;20111;-76
2022/12/03 02:05:32;;;;;;;16.58;10.27;;;4.10;99.90;;;;;;5021539;28;20335;-75
2022/12/03 02:07:59;;;;;;;17.25;10.45;;;4.10;99.90;;;;;;5030662;28;20056;-76
2022/12/03 02:10:36;;;;;;;18.45;10.65;;;4.20;99.90;;;;;;5034840;28;20041;-76
2022/12/03 02:13:07;;;;;;;18.85;11.23;;;3.70;99.90;;;;;;5020613;28;20278;-75
2022/12/03 02:15:35;;;;;;;18.45;11.05;;;4.20;99.90;;;;;;5023854;28;20325;-75
2022/12/03 02:18:04;;;;;;;21.88;9.95;;;4.20;99.90;;;;;;5037941;28;20056;-76
2022/12/03 02:20:44;;;;;;;18.05;10.50;;;4.20;99.90;;;;;;5017707;28;20041;-75
2022/12/03 02:23:19;;;;;;;19.25;10.63;;;4.20;99.90;;;;;;5038450;28;20087;-75
2022/12/03 02:29:11;;;;;;;20.17;11.00;;;4.10;99.90;;;;;;5012159;28;20104;-74
2022/12/03 02:31:37;;;;;;;19.20;11.40;;;4.20;99.90;;;;;;5038157;28;20065;-76
2022/12/03 02:34:07;;;;;;;17.23;9.50;;;4.20;99.90;;;;;;5005764;28;20095;-77
2022/12/03 02:36:34;;;;;;;14.10;8.75;;;4.20;99.90;;;;;;5022756;28;20246;-78
2022/12/03 02:39:26;;;;;;;17.50;10.80;;;4.10;99.90;;;;;;5020076;28;20032;-77
2022/12/03 02:44:58;;;;;;;17.88;10.73;;;4.00;99.90;;;;;;5018410;28;20045;-76
2022/12/03 02:47:28;;;;;;;19.17;12.15;;;4.40;99.90;;;;;;5038213;28;20411;-78
2022/12/03 02:49:54;;;;;;;19.42;10.98;;;5.90;99.90;;;;;;5035366;28;20020;-76
2022/12/03 02:52:20;;;;;;;17.02;10.07;;;4.20;99.90;;;;;;5036588;28;20041;-75
2022/12/03 02:54:47;;;;;;;19.38;11.68;;;4.10;99.90;;;;;;5020499;28;20024;-77
2022/12/03 02:57:16;;;;;;;16.17;10.55;;;4.10;99.90;;;;;;5015615;28;20036;-75
2022/12/03 03:00:06;;;;;;;21.05;11.93;;;4.00;99.90;;;;;;5015292;28;20044;-77
2022/12/03 03:02:36;;;;;;;18.48;11.23;;;4.10;99.90;;;;;;4982314;28;20037;-75
2022/12/03 03:05:05;;;;;;;20.77;11.23;;;2.50;99.90;;;;;;5038006;28;20048;-77
2022/12/03 03:11:12;;;;;;;17.45;10.63;;;4.20;99.90;;;;;;4994391;28;20044;-78
2022/12/03 03:13:38;;;;;;;18.98;11.45;;;5.40;99.90;;;;;;5034528;28;20218;-76
2022/12/03 03:16:05;;;;;;;19.73;12.25;;;3.90;99.90;;;;;;5038178;28;20071;-76
2022/12/03 03:18:32;;;;;;;20.95;11.75;;;3.80;99.90;;;;;;5017788;28;20068;-75
2022/12/03 03:20:58;;;;;;;18.10;11.13;;;3.80;99.90;;;;;;5035094;28;20030;-76
2022/12/03 03:23:24;;;;;;;19.75;12.32;;;3.80;99.90;;;;;;4986822;28;20044;-78
2022/12/03 03:25:58;;;;;;;20.60;11.82;;;3.90;99.90;;;;;;5010750;28;20041;-78
2022/12/03 03:28:25;;;;;;;19.52;11.15;;;3.70;99.90;;;;;;5018110;28;20033;-79
2022/12/03 03:31:23;;;;;;;18.88;11.27;;;3.70;99.90;;;;;;5017770;28;20033;-76
2022/12/03 03:34:04;;;;;;;18.42;10.80;;;3.60;99.90;;;;;;5004354;28;20037;-76
2022/12/03 03:36:46;;;;;;;17.85;11.00;;;5.40;99.90;;;;;;5040849;28;20325;-75
2022/12/03 03:39:13;;;;;;;19.88;11.45;;;3.60;99.90;;;;;;5004228;28;20037;-77
2022/12/03 03:41:45;;;;;;;20.15;11.63;;;4.00;99.90;;;;;;5030506;28;20063;-76
2022/12/03 03:44:30;;;;;;;20.15;11.18;;;5.00;99.90;;;;;;5022133;28;20336;-75
2022/12/03 03:46:56;;;;;;;;;;;4.10;99.90;;;;;;5030771;28;20255;-75
2022/12/03 03:49:22;;;;;;;20.83;11.68;;;2.60;99.90;;;;;;5022812;28;19944;-75
2022/12/03 03:51:48;;;;;;;21.40;12.20;;;4.70;99.90;;;;;;5005137;28;20200;-75
2022/12/03 03:54:14;;;;;;;18.77;11.30;;;4.80;99.90;;;;;;4987924;28;20057;-74
2022/12/03 03:56:40;;;;;;;18.65;11.90;;;3.60;99.90;;;;;;5021970;28;20530;-75
2022/12/03 04:02:32;;;;;;;21.95;12.30;;;3.60;99.90;;;;;;5017635;28;20052;-74
2022/12/03 04:04:58;;;;;;;23.00;12.95;;;3.60;99.90;;;;;;5031729;28;20038;-74
2022/12/03 04:07:24;;;;;;;22.75;12.30;;;4.90;99.90;;;;;;4996911;28;20258;-76
2022/12/03 04:09:49;;;;;;;23.55;12.68;;;4.60;99.90;;;;;;4992490;28;20024;-74
2022/12/03 04:14:59;;;;;;;21.60;11.63;;;4.50;99.90;;;;;;5009423;28;20395;-74
2022/12/03 04:17:32;;;;;;;20.05;11.60;;;3.60;99.90;;;;;;5034996;28;20049;-76
2022/12/03 04:19:58;;;;;;;20.75;12.18;;;4.80;99.90;;;;;;5002526;28;20048;-75
2022/12/03 04:22:41;;;;;;;20.77;11.75;;;3.50;99.90;;;;;;5031667;28;20033;-75
2022/12/03 04:30:38;;;;;;;23.35;12.95;;;3.60;99.90;;;;;;5027334;28;20045;-76
2022/12/03 04:35:48;;;;;;;21.70;12.93;;;3.80;99.90;;;;;;5034658;28;20025;-74
2022/12/03 04:38:15;;;;;;;21.40;11.57;;;4.00;99.90;;;;;;5020860;28;20303;-74
2022/12/03 04:40:59;;;;;;;21.67;12.45;;;5.30;99.90;;;;;;5036921;28;20075;-75
2022/12/03 04:43:30;;;;;;;20.48;12.40;;;3.50;99.90;;;;;;5045889;28;20090;-76
2022/12/03 04:45:56;;;;;;;21.10;12.18;;;3.50;99.90;;;;;;5024620;28;20253;-76
2022/12/03 04:48:22;;;;;;;21.48;12.32;;;3.60;99.90;;;;;;5005198;28;20029;-74
2022/12/03 04:50:57;;;;;;;19.38;11.18;;;3.50;99.90;;;;;;5042703;28;20036;-75
2022/12/03 04:53:31;;;;;;;22.08;13.05;;;3.50;99.90;;;;;;5028754;28;20067;-76
2022/12/03 04:55:57;;;;;;;21.90;12.73;;;3.50;99.90;;;;;;4999682;28;20025;-76
2022/12/03 04:58:23;;;;;;;23.35;13.00;;;3.50;99.90;;;;;;4997927;28;20228;-75
2022/12/03 05:00:51;;;;;;;21.38;11.48;;;5.00;99.90;;;;;;5027394;28;20074;-75
2022/12/03 05:03:17;;;;;;;22.15;12.40;;;3.50;99.90;;;;;;5048037;28;20036;-75
2022/12/03 05:05:43;;;;;;;25.65;12.82;;;3.40;99.90;;;;;;5027783;28;20326;-76
2022/12/03 05:08:08;;;;;;;21.27;12.57;;;3.80;99.90;;;;;;5012069;28;20033;-76
2022/12/03 05:10:37;;;;;;;22.13;12.85;;;3.50;99.90;;;;;;5040266;28;20115;-75
2022/12/03 05:13:04;;;;;;;27.15;13.32;;;3.40;99.90;;;;;;5036603;28;20056;-75
2022/12/03 05:15:30;;;;;;;22.95;13.25;;;3.40;99.90;;;;;;5028608;28;20064;-77
2022/12/03 05:17:56;;;;;;;23.40;13.38;;;4.70;99.90;;;;;;5014316;28;20371;-77
2022/12/03 05:23:08;;;;;;;21.00;11.82;;;3.40;99.90;;;;;;5028733;28;20158;-76
2022/12/03 05:25:34;;;;;;;20.65;11.52;;;3.40;99.90;;;;;;5014921;28;20530;-75
2022/12/03 05:27:59;;;;;;;21.27;11.63;;;3.60;99.90;;;;;;5030350;28;20107;-74
2022/12/03 05:30:25;;;;;;;22.17;13.70;;;3.40;99.90;;;;;;5025918;28;20037;-75
2022/12/03 05:32:51;;;;;;;21.75;12.65;;;3.40;99.90;;;;;;5019749;28;20029;-73
2022/12/03 05:35:19;;;;;;;24.48;12.55;;;3.40;99.90;;;;;;5028526;28;20068;-74
2022/12/03 05:37:45;;;;;;;19.35;10.68;;;4.20;99.90;;;;;;5026285;28;20104;-74
2022/12/03 05:40:11;;;;;;;20.60;11.50;;;3.50;99.90;;;;;;5020421;28;20040;-73
2022/12/03 05:42:53;;;;;;;21.52;11.40;;;3.40;99.90;;;;;;5044441;28;20347;-74
2022/12/03 05:45:30;;;;;;;20.15;11.18;;;3.90;99.90;;;;;;5028553;28;20037;-75
2022/12/03 05:47:57;;;;;;;20.65;11.20;;;3.40;99.90;;;;;;5041359;28;20102;-76
2022/12/03 05:50:25;;;;;;;21.95;12.38;;;3.40;99.90;;;;;;5027654;28;20029;-75
2022/12/03 05:52:53;;;;;;;22.88;12.80;;;4.90;99.90;;;;;;5035440;28;20028;-74
2022/12/03 05:55:19;;;;;;;20.60;11.18;;;4.90;99.90;;;;;;5018027;28;20025;-75
2022/12/03 05:57:45;;;;;;;21.75;12.50;;;3.40;99.90;;;;;;5016486;28;20040;-74
2022/12/03 06:00:23;;;;;;;23.48;14.43;;;3.30;99.90;;;;;;4994269;28;20103;-74
2022/12/03 06:02:49;;;;;;;21.00;11.05;;;3.30;99.90;;;;;;5007613;28;20025;-76
2022/12/03 06:05:18;;;;;;;22.02;12.57;;;3.30;99.90;;;;;;5010326;28;20041;-76
2022/12/03 06:07:51;;;;;;;21.38;11.45;;;3.30;99.90;;;;;;4989822;28;20115;-77
2022/12/03 06:10:24;;;;;;;24.60;13.23;;;3.30;99.90;;;;;;5019602;28;20033;-74
2022/12/03 06:12:50;;;;;;;22.80;12.63;;;4.70;99.90;;;;;;5020241;28;20457;-74
2022/12/03 06:15:17;;;;;;;25.60;12.55;;;3.30;99.90;;;;;;5023690;28;20068;-73
2022/12/03 06:17:42;;;;;;;21.50;11.65;;;3.30;99.90;;;;;;5046571;28;20120;-75
2022/12/03 06:20:15;;;;;;;23.02;11.65;;;3.30;99.90;;;;;;4992048;28;20044;-76
2022/12/03 06:22:41;;;;;;;20.33;11.43;;;3.30;99.90;;;;;;5006884;28;20045;-76
2022/12/03 06:25:07;;;;;;;21.50;11.10;;;3.40;99.90;;;;;;4997002;28;20041;-74
2022/12/03 06:27:35;;;;;;;21.80;12.10;;;3.30;99.90;;;;;;5004781;28;20051;-74
2022/12/03 06:30:01;;;;;;;21.67;12.32;;;3.30;99.90;;;;;;5022652;28;20101;-75
2022/12/03 06:32:27;;;;;;;20.45;11.57;;;3.30;99.90;;;;;;5006132;28;20615;-77
2022/12/03 06:34:53;;;;;;;21.58;11.57;;;4.40;99.90;;;;;;5008937;28;20049;-74
2022/12/03 06:37:25;;;;;;;23.20;11.73;;;4.60;99.90;;;;;;5008740;28;20036;-74
2022/12/03 06:39:51;;;;;;;22.52;12.57;;;3.30;99.90;;;;;;5037795;28;20037;-76
2022/12/03 06:42:16;;;;;;;21.13;11.55;;;3.60;99.90;;;;;;5005668;28;20328;-77
2022/12/03 06:44:44;;;;;;;18.92;10.88;;;4.70;99.90;;;;;;5041758;28;20216;-76
2022/12/03 06:47:10;;;;;;;20.55;11.43;;;5.20;99.90;;;;;;4993999;28;20029;-76
2022/12/03 06:49:37;;;;;;;21.35;11.82;;;3.30;99.90;;;;;;5033033;28;20161;-78
2022/12/03 06:52:05;;;;;;;17.48;10.68;;;3.30;99.90;;;;;;5025443;28;20022;-76
2022/12/03 06:54:33;;;;;;;20.05;11.75;;;3.30;99.90;;;;;;4996900;28;20324;-76
2022/12/03 06:56:59;;;;;;;18.80;10.43;;;3.20;99.90;;;;;;4991109;28;20049;-75
2022/12/03 06:59:24;;;;;;;23.52;11.40;;;3.50;99.90;;;;;;5009456;28;20038;-77
2022/12/03 07:01:52;;;;;;;20.92;11.02;;;3.20;99.90;;;;;;5008700;28;20222;-76
2022/12/03 07:04:18;;;;;;;21.05;10.77;;;4.50;99.90;;;;;;5013433;28;20030;-76
2022/12/03 07:06:47;;;;;;;20.10;11.20;;;3.20;99.90;;;;;;5010782;28;20072;-74
2022/12/03 07:09:26;;;;;;;22.20;12.25;;;4.70;99.90;;;;;;4990672;28;20155;-75
2022/12/03 07:11:52;;;;;;;23.35;11.98;;;3.60;99.90;;;;;;5016042;28;20044;-76
2022/12/03 07:14:44;;;;;;;21.40;11.98;;;3.20;99.90;;;;;;5011047;28;20029;-75
2022/12/03 07:17:50;;;;;;;22.17;11.82;;;3.10;99.90;;;;;;5020836;28;20087;-76
2022/12/03 07:20:19;;;;;;;22.05;11.85;;;1.50;99.90;;;;;;5026366;28;20378;-74
2022/12/03 07:23:50;;;;;;;;;;;;;;;;;;;;;
2022/12/03 07:27:11;;;;;;;22.58;11.63;;;3.20;99.90;;;;;;5021822;28;20060;-74
2022/12/03 07:33:11;;;;;;;20.45;11.50;;;3.30;99.90;;;;;;5044106;28;20053;-75
2022/12/03 07:35:37;;;;;;;20.55;11.63;;;3.00;99.90;;;;;;5006592;28;20024;-73
2022/12/03 07:38:03;;;;;;;19.40;11.02;;;3.00;99.90;;;;;;5034865;28;20059;-75
2022/12/03 07:40:29;;;;;;;20.33;10.95;;;3.10;99.90;;;;;;5023437;28;20189;-77
2022/12/03 07:42:57;;;;;;;23.30;11.40;;;3.10;99.90;;;;;;5047171;28;20040;-75
2022/12/03 07:45:23;;;;;;;21.58;11.18;;;3.00;99.90;;;;;;5014566;28;20040;-76
2022/12/03 07:47:49;;;;;;;20.25;11.65;;;3.00;99.90;;;;;;5038614;28;20033;-75
2022/12/03 07:50:17;;;;;;;23.50;11.32;;;3.00;99.90;;;;;;5019606;28;20070;-75
2022/12/03 07:52:45;;;;;;;23.25;12.35;;;3.00;99.90;;;;;;5002826;28;20382;-74
2022/12/03 07:55:24;;;;;;;21.55;10.80;;;3.10;99.90;;;;;;5022618;28;20435;-75
2022/12/03 07:57:52;;;;;;;19.42;11.40;;;4.40;99.90;;;;;;5036690;28;20063;-75
2022/12/03 08:00:21;;;;;;;21.08;11.93;;;3.10;99.90;;;;;;5034316;28;20051;-75
2022/12/03 08:02:52;;;;;;;19.55;10.93;;;2.90;99.90;;;;;;5001077;28;20029;-75
2022/12/03 08:05:33;;;;;;;;;;;;;;;;;;;;;
2022/12/03 08:08:00;;;;;;;20.67;11.02;;;4.70;99.90;;;;;;5017316;28;20403;-75
2022/12/03 08:11:48;;;;;;;;;;;;;;;;;;;;;
2022/12/03 08:22:19;;;;;;;24.00;12.82;;;2.90;99.90;;;;;;4903487;29;20051;-75
2022/12/03 08:26:14;;;;;;;;;;;;;;;;;;;;;
2022/12/03 08:41:22;;;;;;;;;;;;;;;;;;;;;
2022/12/03 09:21:40;;;;;;;27.98;13.32;;;2.50;99.90;;;;;;5511349;22;17871671;-95
2022/12/03 09:24:06;;;;;;;26.58;13.82;;;2.60;99.90;;;;;;6153979;23;20099;-96
2022/12/03 09:26:32;;;;;;;30.92;14.93;;;2.50;99.90;;;;;;6202644;23;20043;-95
2022/12/03 09:29:01;;;;;;;31.88;15.77;;;2.80;99.90;;;;;;6154443;23;20024;-96
2022/12/03 09:31:27;;;;;;;22.50;11.32;;;2.60;99.90;;;;;;6179767;23;20016;-95
2022/12/03 09:33:53;;;;;;;20.73;10.30;;;3.10;99.90;;;;;;6178544;23;20024;-96
2022/12/03 09:36:19;;;;;;;24.10;12.57;;;2.50;99.90;;;;;;6226668;23;20017;-95
2022/12/03 09:38:45;;;;;;;26.42;13.68;;;2.40;99.90;;;;;;6177215;23;20044;-96
2022/12/03 09:41:11;;;;;;;23.80;13.23;;;2.60;99.90;;;;;;6202303;23;20032;-95
2022/12/03 09:43:37;;;;;;;27.73;14.98;;;2.60;99.90;;;;;;6202749;23;20016;-96
2022/12/03 09:46:04;;;;;;;25.23;12.88;;;2.60;99.90;;;;;;6203518;23;20104;-95
2022/12/03 09:48:30;;;;;;;24.60;13.75;;;2.70;99.90;;;;;;6179008;23;20027;-96
2022/12/03 09:50:56;;;;;;;25.13;11.75;;;3.90;99.90;;;;;;6154118;23;20087;-96
2022/12/03 09:53:25;;;;;;;28.50;14.63;;;2.40;99.90;;;;;;6205388;23;20016;-95
2022/12/03 09:55:51;;;;;;;25.67;12.40;;;3.50;99.90;;;;;;6204364;23;20050;-96
2022/12/03 09:58:18;;;;;;;25.77;14.50;;;2.80;99.90;;;;;;6198150;23;20013;-93
2022/12/03 10:00:54;;;;;;;27.30;13.45;;;2.60;99.90;;;;;;6190323;23;20012;-94
2022/12/03 10:03:27;;;;;;;27.30;14.23;;;2.80;99.90;;;;;;6187854;23;20122;-94
2022/12/03 10:05:54;;;;;;;27.20;14.35;;;2.70;99.90;;;;;;6189862;23;20017;-94
2022/12/03 10:08:22;;;;;;;29.73;15.32;;;2.50;99.90;;;;;;6187717;23;20122;-94
2022/12/03 10:10:52;;;;;;;24.05;12.95;;;2.60;99.90;;;;;;6196628;23;20016;-93
2022/12/03 10:13:27;;;;;;;26.67;13.80;;;2.60;99.90;;;;;;6198711;23;20016;-93
2022/12/03 10:15:56;;;;;;;25.48;13.93;;;2.50;99.90;;;;;;6197443;23;20020;-94
2022/12/03 10:18:27;;;;;;;26.88;12.95;;;2.70;99.90;;;;;;6197122;23;20039;-93
2022/12/03 10:20:54;;;;;;;27.40;13.48;;;4.10;99.90;;;;;;6196227;23;20024;-92
2022/12/03 10:23:25;;;;;;;26.88;14.90;;;2.10;99.90;;;;;;6169585;23;20016;-93
2022/12/03 10:25:53;;;;;;;29.27;14.63;;;2.60;99.90;;;;;;6194506;23;20099;-93
2022/12/03 10:28:37;;;;;;;28.65;14.15;;;2.60;99.90;;;;;;6194630;23;20013;-92
2022/12/03 10:31:05;;;;;;;25.80;12.80;;;2.60;99.90;;;;;;6197527;23;20395;-93
2022/12/03 10:33:43;;;;;;;29.15;14.20;;;2.50;99.90;;;;;;6195240;23;20020;-92
2022/12/03 10:36:26;;;;;;;28.52;13.70;;;2.80;99.90;;;;;;6199567;23;20449;-95
2022/12/03 10:39:14;;;;;;;25.85;14.30;;;2.60;99.90;;;;;;6192569;23;20418;-93
2022/12/03 10:41:47;;;;;;;30.33;15.98;;;2.70;99.90;;;;;;6193327;23;20457;-94
2022/12/03 10:44:19;;;;;;;23.98;12.95;;;2.70;99.90;;;;;;6194598;23;20113;-94
2022/12/03 10:47:04;;;;;;;28.25;14.40;;;3.00;99.90;;;;;;6194086;23;20021;-93
2022/12/03 10:49:33;;;;;;;28.80;14.02;;;2.60;99.90;;;;;;6188214;23;20013;-94
2022/12/03 10:52:21;;;;;;;30.90;14.70;;;2.60;99.90;;;;;;6202852;23;20027;-93
2022/12/03 10:54:49;;;;;;;23.27;12.02;;;2.70;99.90;;;;;;6199159;23;20472;-93
2022/12/03 10:57:16;;;;;;;23.13;13.65;;;4.60;99.90;;;;;;6198545;23;20000;-95
2022/12/03 10:59:44;;;;;;;27.30;13.82;;;2.60;99.90;;;;;;6175219;23;20044;-95
2022/12/03 11:02:40;;;;;;;26.60;13.93;;;2.70;99.90;;;;;;6198043;23;20036;-94
2022/12/03 11:05:09;;;;;;;25.30;12.70;;;2.70;99.90;;;;;;6145517;23;20020;-95
2022/12/03 11:07:38;;;;;;;28.05;15.07;;;2.80;99.90;;;;;;6204091;23;20450;-95
2022/12/03 11:10:16;;;;;;;27.48;14.50;;;2.70;99.90;;;;;;6180910;23;20011;-95
2022/12/03 11:13:01;;;;;;;26.33;14.13;;;2.90;99.90;;;;;;6198618;23;20004;-95
2022/12/03 11:15:47;;;;;;;27.83;15.07;;;3.20;99.90;;;;;;6196897;23;20017;-95
2022/12/03 11:18:35;;;;;;;30.10;14.63;;;2.70;99.90;;;;;;6197887;23;20091;-94
2022/12/03 11:21:07;;;;;;;30.05;14.75;;;2.70;99.90;;;;;;6200322;23;20000;-95
2022/12/03 11:23:45;;;;;;;26.38;14.35;;;2.60;99.90;;;;;;6207174;23;20021;-96
2022/12/03 11:26:41;;;;;;;26.40;13.30;;;2.80;99.90;;;;;;6204322;23;20024;-96
2022/12/03 11:29:19;;;;;;;23.92;11.95;;;2.90;99.90;;;;;;6202558;23;20167;-96
2022/12/03 11:31:48;;;;;;;21.75;10.48;;;2.90;99.90;;;;;;6175527;23;20442;-96
2022/12/03 11:34:38;;;;;;;28.08;14.73;;;2.60;99.90;;;;;;6174730;23;20068;-96
2022/12/03 11:37:15;;;;;;;21.05;10.43;;;2.50;99.90;;;;;;6204773;23;20046;-96
2022/12/03 11:40:23;;;;;;;25.95;11.80;;;2.80;99.90;;;;;;6203325;23;20068;-95
2022/12/03 11:42:55;;;;;;;30.08;16.08;;;3.00;99.90;;;;;;6158114;23;20441;-96
2022/12/03 11:45:34;;;;;;;29.48;15.57;;;3.20;99.90;;;;;;6174644;23;20008;-96
2022/12/03 11:48:12;;;;;;;29.35;14.75;;;2.60;99.90;;;;;;6203360;23;20353;-95
2022/12/03 11:50:42;;;;;;;30.27;15.45;;;2.70;99.90;;;;;;6204784;23;20095;-96
2022/12/03 11:53:24;;;;;;;29.38;14.85;;;2.80;99.90;;;;;;6204438;23;20016;-96
2022/12/03 11:56:07;;;;;;;26.83;13.23;;;2.70;99.90;;;;;;6204961;23;20020;-96
2022/12/03 11:58:41;;;;;;;27.50;14.15;;;3.10;99.90;;;;;;6201702;23;20333;-96
2022/12/03 12:01:07;;;;;;;30.90;15.90;;;2.80;99.90;;;;;;6203718;23;20013;-95
2022/12/03 12:03:36;;;;;;;24.60;14.13;;;2.60;99.90;;;;;;6180325;23;20020;-94
2022/12/03 12:06:07;;;;;;;25.58;12.98;;;2.80;99.90;;;;;;6180033;23;20012;-96
2022/12/03 12:08:36;;;;;;;28.60;14.07;;;2.60;99.90;;;;;;6208441;23;20072;-96
2022/12/03 12:11:03;;;;;;;23.95;14.05;;;1.10;99.90;;;;;;6207977;23;20013;-96
2022/12/03 12:13:35;;;;;;;26.92;14.20;;;2.60;99.90;;;;;;6206738;23;20091;-95
2022/12/03 12:16:05;;;;;;;26.30;13.45;;;4.00;99.90;;;;;;6207725;23;20062;-96
2022/12/03 12:18:50;;;;;;;26.05;14.30;;;2.70;99.90;;;;;;6205750;23;20043;-96
2022/12/03 12:21:49;;;;;;;25.77;14.27;;;3.10;99.90;;;;;;6204148;23;20035;-96
2022/12/03 12:24:55;;;;;;;27.90;14.55;;;2.60;99.90;;;;;;6203977;23;20021;-95
2022/12/03 12:27:28;;;;;;;32.15;15.55;;;2.60;99.90;;;;;;6118148;23;20013;-96
2022/12/03 12:30:41;;;;;;;26.33;14.18;;;2.60;99.90;;;;;;6137204;23;20036;-96
2022/12/03 12:33:13;;;;;;;25.45;13.27;;;3.00;99.90;;;;;;6194478;23;20044;-96
2022/12/03 12:35:40;;;;;;;25.88;13.77;;;2.70;99.90;;;;;;6203817;23;20082;-96
2022/12/03 12:38:06;;;;;;;29.05;14.45;;;3.30;99.90;;;;;;6203394;23;20040;-95
2022/12/03 12:40:39;;;;;;;27.00;14.38;;;2.70;99.90;;;;;;6204732;23;20004;-96
2022/12/03 12:43:24;;;;;;;21.35;11.43;;;2.30;99.90;;;;;;6173795;23;20019;-96
2022/12/03 12:45:52;;;;;;;23.02;12.40;;;2.50;99.90;;;;;;6205067;23;20028;-96
2022/12/03 12:48:30;;;;;;;24.38;12.40;;;3.20;99.90;;;;;;6183101;23;20043;-96
2022/12/03 12:51:14;;;;;;;28.52;15.80;;;2.50;99.90;;;;;;6207481;23;20017;-96
2022/12/03 12:53:44;;;;;;;27.23;13.98;;;2.80;99.90;;;;;;6204774;23;20009;-96
2022/12/03 12:56:15;;;;;;;26.00;14.40;;;3.10;99.90;;;;;;6199240;23;20025;-95
2022/12/03 12:58:41;;;;;;;28.05;15.20;;;2.60;99.90;;;;;;6201328;23;20067;-96
2022/12/03 13:01:18;;;;;;;26.25;13.82;;;2.60;99.90;;;;;;6175263;23;20078;-96
2022/12/03 13:03:44;;;;;;;24.30;12.25;;;3.40;99.90;;;;;;6205793;23;20016;-96
2022/12/03 13:06:15;;;;;;;26.75;13.80;;;2.50;99.90;;;;;;6175193;23;20116;-96
2022/12/03 13:08:47;;;;;;;29.20;14.32;;;2.50;99.90;;;;;;6175421;23;20016;-96
2022/12/03 13:11:44;;;;;;;29.95;15.63;;;2.40;99.90;;;;;;6198490;23;20036;-95
2022/12/03 13:14:13;;;;;;;26.05;13.85;;;2.50;99.90;;;;;;6199115;23;20017;-96
2022/12/03 13:16:39;;;;;;;28.25;14.77;;;2.40;99.90;;;;;;6200664;23;20036;-95
2022/12/03 13:19:23;;;;;;;29.60;15.18;;;2.70;99.90;;;;;;6174690;23;20021;-95
2022/12/03 13:21:54;;;;;;;44.03;20.42;;;2.50;99.90;;;;;;6197986;23;20152;-95
2022/12/03 13:24:38;;;;;;;45.88;22.65;;;2.50;99.90;;;;;;6195637;23;20028;-96
2022/12/03 13:27:16;;;;;;;56.97;25.42;;;2.50;99.90;;;;;;6194947;23;20023;-95
2022/12/03 13:29:49;;;;;;;67.05;31.42;;;2.60;99.90;;;;;;6195405;23;20095;-96
2022/12/03 13:32:41;;;;;;;39.97;21.55;;;2.50;99.90;;;;;;6194117;23;20048;-96
2022/12/03 13:35:25;;;;;;;28.90;15.70;;;2.40;99.90;;;;;;6197694;23;20016;-96
2022/12/03 13:37:52;;;;;;;30.35;15.32;;;2.60;99.90;;;;;;6198970;23;20023;-96
2022/12/03 13:40:34;;;;;;;34.50;18.92;;;2.60;99.90;;;;;;6172905;23;20020;-96
2022/12/03 13:43:04;;;;;;;32.10;20.33;;;2.80;99.90;;;;;;6196103;23;20043;-96
2022/12/03 13:45:38;;;;;;;28.05;16.33;;;2.40;99.90;;;;;;6197040;23;20075;-96
2022/12/03 13:48:25;;;;;;;26.05;13.77;;;2.60;99.90;;;;;;6197174;23;20091;-96
2022/12/03 13:50:52;;;;;;;25.88;13.30;;;2.30;99.90;;;;;;6196488;23;20012;-95
2022/12/03 13:53:27;;;;;;;27.73;14.85;;;3.10;99.90;;;;;;6198124;23;20012;-96
2022/12/03 13:56:31;;;;;;;29.77;13.45;;;2.40;99.90;;;;;;6198707;23;20063;-95
2022/12/03 13:58:59;;;;;;;26.73;12.80;;;2.40;99.90;;;;;;6192908;23;20017;-94
2022/12/03 14:01:26;;;;;;;28.25;15.77;;;2.20;99.90;;;;;;6202440;23;20048;-96
2022/12/03 14:03:52;;;;;;;28.20;15.85;;;2.50;99.90;;;;;;6170767;23;20515;-95
2022/12/03 14:06:18;;;;;;;27.75;15.10;;;2.20;99.90;;;;;;6148401;23;20024;-96
2022/12/03 14:08:44;;;;;;;26.55;12.75;;;2.40;99.90;;;;;;6173847;23;20442;-96
2022/12/03 14:14:27;;;;;;;25.88;13.07;;;2.00;99.90;;;;;;6222655;23;20048;-96
2022/12/03 14:17:06;;;;;;;28.02;13.63;;;2.10;99.90;;;;;;6200358;23;20020;-96
2022/12/03 14:19:37;;;;;;;28.02;15.20;;;1.30;99.90;;;;;;6175839;23;20124;-95
2022/12/03 14:22:08;;;;;;;27.10;13.57;;;2.30;99.90;;;;;;6199928;23;20446;-96
2022/12/03 14:24:35;;;;;;;32.38;14.85;;;2.20;99.90;;;;;;6201334;23;20031;-96
2022/12/03 14:30:48;;;;;;;33.47;15.70;;;0.90;99.90;;;;;;6226746;23;20032;-96
2022/12/03 14:37:24;;;;;;;28.40;14.50;;;2.10;99.90;;;;;;6226603;23;20067;-96
2022/12/03 14:40:00;;;;;;;28.42;14.68;;;1.50;99.90;;;;;;6177819;23;20018;-95
2022/12/03 14:42:35;;;;;;;29.70;14.55;;;1.90;99.90;;;;;;6207244;23;20020;-96
2022/12/03 14:45:03;;;;;;;26.55;13.23;;;1.90;99.90;;;;;;6156500;23;20017;-96
2022/12/03 14:47:48;;;;;;;29.02;14.27;;;2.00;99.90;;;;;;6112132;23;20018;-95
2022/12/03 14:50:14;;;;;;;31.50;15.60;;;3.00;99.90;;;;;;6154516;23;20016;-96
2022/12/03 14:52:42;;;;;;;29.45;13.75;;;2.00;99.90;;;;;;6179275;23;20091;-96
2022/12/03 14:55:08;;;;;;;26.58;14.07;;;2.90;99.90;;;;;;6203061;23;20016;-96
2022/12/03 14:57:34;;;;;;;34.78;15.45;;;1.80;99.90;;;;;;6199588;23;20091;-96
2022/12/03 15:00:00;;;;;;;32.17;14.93;;;1.80;99.90;;;;;;6178077;23;19997;-96
2022/12/03 15:02:25;;;;;;;30.27;14.75;;;1.80;99.90;;;;;;6180013;23;20032;-96